METAR

TAF

 




Curitiba / Bacacheri, PR - SBBI


22 de Dezembro de 2014 às 00:00 (UTC)


Tempo:

Céu com nuvens esparsas

Temperatura:

21ºC

Umidade Relativa:

94%

Localização:
Ajuste do Altímetro:

1011 hPa

Visibilidade Horizontal Predominante:

> 10 Km

Direção e Velocidade do Vento:

020° 9,26 Km/h


Observação Meteorológica:

METAR SBBI 220000Z 02005KT 9999 FEW016 21/20 Q1011=